sensor_id;sensor_type;location;lat;lon;timestamp;P1;durP1;ratioP1;P2;durP2;ratioP2
70929;SDS011;58588;48.102;19.682;2023-03-01T00:02:40;62.55;;;26.75;;
70929;SDS011;58588;48.102;19.682;2023-03-01T00:05:43;51.88;;;22.90;;
70929;SDS011;58588;48.102;19.682;2023-03-01T00:08:46;58.00;;;24.17;;
70929;SDS011;58588;48.102;19.682;2023-03-01T00:11:48;56.40;;;24.63;;
70929;SDS011;58588;48.102;19.682;2023-03-01T00:14:52;49.00;;;22.27;;
70929;SDS011;58588;48.102;19.682;2023-03-01T00:17:54;61.47;;;24.38;;
70929;SDS011;58588;48.102;19.682;2023-03-01T00:20:57;58.03;;;25.13;;
70929;SDS011;58588;48.102;19.682;2023-03-01T00:23:59;45.90;;;21.07;;
70929;SDS011;58588;48.102;19.682;2023-03-01T00:27:02;49.97;;;22.67;;
70929;SDS011;58588;48.102;19.682;2023-03-01T00:30:06;55.00;;;24.48;;
70929;SDS011;58588;48.102;19.682;2023-03-01T00:33:10;61.28;;;23.92;;
70929;SDS011;58588;48.102;19.682;2023-03-01T00:36:12;64.68;;;26.40;;
70929;SDS011;58588;48.102;19.682;2023-03-01T00:39:16;56.13;;;23.87;;
70929;SDS011;58588;48.102;19.682;2023-03-01T00:42:18;44.08;;;18.80;;
70929;SDS011;58588;48.102;19.682;2023-03-01T00:45:22;36.13;;;16.33;;
70929;SDS011;58588;48.102;19.682;2023-03-01T00:48:24;35.22;;;14.75;;
70929;SDS011;58588;48.102;19.682;2023-03-01T00:51:26;38.88;;;16.08;;
70929;SDS011;58588;48.102;19.682;2023-03-01T00:54:29;31.77;;;14.30;;
70929;SDS011;58588;48.102;19.682;2023-03-01T00:57:31;37.05;;;14.93;;
70929;SDS011;58588;48.102;19.682;2023-03-01T01:00:35;31.25;;;13.75;;
70929;SDS011;58588;48.102;19.682;2023-03-01T01:03:37;26.98;;;11.98;;
70929;SDS011;58588;48.102;19.682;2023-03-01T01:06:40;31.30;;;13.15;;
70929;SDS011;58588;48.102;19.682;2023-03-01T01:09:44;26.87;;;11.57;;
70929;SDS011;58588;48.102;19.682;2023-03-01T01:12:47;29.95;;;13.30;;
70929;SDS011;58588;48.102;19.682;2023-03-01T01:15:50;27.30;;;11.23;;
70929;SDS011;58588;48.102;19.682;2023-03-01T01:18:52;25.83;;;10.70;;
70929;SDS011;58588;48.102;19.682;2023-03-01T01:21:54;25.23;;;10.65;;
70929;SDS011;58588;48.102;19.682;2023-03-01T01:24:56;27.20;;;10.07;;
70929;SDS011;58588;48.102;19.682;2023-03-01T01:27:59;26.70;;;10.95;;
70929;SDS011;58588;48.102;19.682;2023-03-01T01:31:03;26.50;;;10.75;;
70929;SDS011;58588;48.102;19.682;2023-03-01T01:34:07;30.02;;;11.30;;
70929;SDS011;58588;48.102;19.682;2023-03-01T01:37:13;25.73;;;9.82;;
70929;SDS011;58588;48.102;19.682;2023-03-01T01:40:15;24.40;;;10.37;;
70929;SDS011;58588;48.102;19.682;2023-03-01T01:43:19;30.13;;;11.63;;
70929;SDS011;58588;48.102;19.682;2023-03-01T01:46:25;21.55;;;9.88;;
70929;SDS011;58588;48.102;19.682;2023-03-01T01:49:32;28.27;;;10.77;;
70929;SDS011;58588;48.102;19.682;2023-03-01T01:52:37;25.60;;;11.43;;
70929;SDS011;58588;48.102;19.682;2023-03-01T01:55:40;31.60;;;11.77;;
70929;SDS011;58588;48.102;19.682;2023-03-01T01:58:45;29.30;;;11.40;;
70929;SDS011;58588;48.102;19.682;2023-03-01T02:01:50;28.90;;;11.40;;
70929;SDS011;58588;48.102;19.682;2023-03-01T02:04:54;25.67;;;11.43;;
70929;SDS011;58588;48.102;19.682;2023-03-01T02:08:04;30.15;;;13.15;;
70929;SDS011;58588;48.102;19.682;2023-03-01T02:11:07;29.87;;;12.23;;
70929;SDS011;58588;48.102;19.682;2023-03-01T02:14:10;30.58;;;12.65;;
70929;SDS011;58588;48.102;19.682;2023-03-01T02:17:14;29.00;;;11.63;;
70929;SDS011;58588;48.102;19.682;2023-03-01T02:20:20;27.45;;;12.02;;
70929;SDS011;58588;48.102;19.682;2023-03-01T02:23:28;32.13;;;12.75;;
70929;SDS011;58588;48.102;19.682;2023-03-01T02:26:33;38.63;;;17.40;;
70929;SDS011;58588;48.102;19.682;2023-03-01T02:29:43;43.65;;;15.57;;
70929;SDS011;58588;48.102;19.682;2023-03-01T02:32:45;37.53;;;16.20;;
70929;SDS011;58588;48.102;19.682;2023-03-01T02:35:49;41.40;;;16.92;;
70929;SDS011;58588;48.102;19.682;2023-03-01T02:38:51;42.03;;;15.85;;
70929;SDS011;58588;48.102;19.682;2023-03-01T02:41:57;32.67;;;14.07;;
70929;SDS011;58588;48.102;19.682;2023-03-01T02:45:01;38.15;;;15.05;;
70929;SDS011;58588;48.102;19.682;2023-03-01T02:48:04;31.70;;;13.95;;
70929;SDS011;58588;48.102;19.682;2023-03-01T02:51:09;31.85;;;14.10;;
70929;SDS011;58588;48.102;19.682;2023-03-01T02:54:18;33.47;;;13.27;;
70929;SDS011;58588;48.102;19.682;2023-03-01T02:57:27;32.60;;;13.47;;
70929;SDS011;58588;48.102;19.682;2023-03-01T03:00:34;35.70;;;14.02;;
70929;SDS011;58588;48.102;19.682;2023-03-01T03:03:40;30.25;;;12.73;;
70929;SDS011;58588;48.102;19.682;2023-03-01T03:06:42;28.65;;;12.98;;
70929;SDS011;58588;48.102;19.682;2023-03-01T03:09:45;33.15;;;13.15;;
70929;SDS011;58588;48.102;19.682;2023-03-01T03:12:49;33.33;;;13.60;;
70929;SDS011;58588;48.102;19.682;2023-03-01T03:15:53;33.80;;;13.20;;
70929;SDS011;58588;48.102;19.682;2023-03-01T03:18:56;28.85;;;11.38;;
70929;SDS011;58588;48.102;19.682;2023-03-01T03:22:05;26.83;;;10.93;;
70929;SDS011;58588;48.102;19.682;2023-03-01T03:25:09;29.70;;;11.38;;
70929;SDS011;58588;48.102;19.682;2023-03-01T03:28:11;29.53;;;12.00;;
70929;SDS011;58588;48.102;19.682;2023-03-01T03:31:15;27.17;;;11.85;;
70929;SDS011;58588;48.102;19.682;2023-03-01T03:34:17;29.10;;;11.57;;
70929;SDS011;58588;48.102;19.682;2023-03-01T03:37:19;29.00;;;11.57;;
70929;SDS011;58588;48.102;19.682;2023-03-01T03:40:38;30.30;;;12.30;;
70929;SDS011;58588;48.102;19.682;2023-03-01T03:43:41;29.87;;;12.30;;
70929;SDS011;58588;48.102;19.682;2023-03-01T03:46:45;34.08;;;12.85;;
70929;SDS011;58588;48.102;19.682;2023-03-01T03:49:47;32.08;;;12.85;;
70929;SDS011;58588;48.102;19.682;2023-03-01T03:52:49;32.83;;;13.85;;
70929;SDS011;58588;48.102;19.682;2023-03-01T03:55:51;29.00;;;12.77;;
70929;SDS011;58588;48.102;19.682;2023-03-01T03:58:54;34.50;;;14.03;;
70929;SDS011;58588;48.102;19.682;2023-03-01T04:01:57;32.97;;;13.18;;
70929;SDS011;58588;48.102;19.682;2023-03-01T04:04:59;34.60;;;14.98;;
70929;SDS011;58588;48.102;19.682;2023-03-01T04:08:02;35.13;;;14.23;;
70929;SDS011;58588;48.102;19.682;2023-03-01T04:11:07;38.05;;;14.85;;
70929;SDS011;58588;48.102;19.682;2023-03-01T04:14:22;33.87;;;14.13;;
70929;SDS011;58588;48.102;19.682;2023-03-01T04:17:26;36.30;;;15.15;;
70929;SDS011;58588;48.102;19.682;2023-03-01T04:20:29;38.55;;;16.15;;
70929;SDS011;58588;48.102;19.682;2023-03-01T04:23:33;37.25;;;14.95;;
70929;SDS011;58588;48.102;19.682;2023-03-01T04:26:36;34.70;;;15.35;;
70929;SDS011;58588;48.102;19.682;2023-03-01T04:29:38;41.40;;;16.90;;
70929;SDS011;58588;48.102;19.682;2023-03-01T04:32:41;38.47;;;15.45;;
70929;SDS011;58588;48.102;19.682;2023-03-01T04:35:43;33.88;;;14.25;;
70929;SDS011;58588;48.102;19.682;2023-03-01T04:38:45;38.13;;;15.05;;
70929;SDS011;58588;48.102;19.682;2023-03-01T04:41:48;41.22;;;15.63;;
70929;SDS011;58588;48.102;19.682;2023-03-01T04:44:50;35.93;;;14.83;;
70929;SDS011;58588;48.102;19.682;2023-03-01T04:47:54;35.25;;;15.25;;
70929;SDS011;58588;48.102;19.682;2023-03-01T04:50:58;32.05;;;14.52;;
70929;SDS011;58588;48.102;19.682;2023-03-01T04:54:00;37.65;;;15.25;;
70929;SDS011;58588;48.102;19.682;2023-03-01T04:57:03;40.97;;;17.08;;
70929;SDS011;58588;48.102;19.682;2023-03-01T05:00:06;40.87;;;16.50;;
70929;SDS011;58588;48.102;19.682;2023-03-01T05:03:21;42.65;;;16.63;;
70929;SDS011;58588;48.102;19.682;2023-03-01T05:06:23;60.72;;;22.00;;
70929;SDS011;58588;48.102;19.682;2023-03-01T05:09:25;82.82;;;27.25;;
70929;SDS011;58588;48.102;19.682;2023-03-01T05:12:27;54.80;;;21.70;;
70929;SDS011;58588;48.102;19.682;2023-03-01T05:15:30;52.33;;;19.90;;
70929;SDS011;58588;48.102;19.682;2023-03-01T05:18:34;51.72;;;20.50;;
70929;SDS011;58588;48.102;19.682;2023-03-01T05:21:36;55.67;;;21.33;;
70929;SDS011;58588;48.102;19.682;2023-03-01T05:24:59;41.17;;;16.95;;
70929;SDS011;58588;48.102;19.682;2023-03-01T05:28:02;45.30;;;18.02;;
70929;SDS011;58588;48.102;19.682;2023-03-01T05:31:05;38.67;;;16.47;;
70929;SDS011;58588;48.102;19.682;2023-03-01T05:34:11;36.70;;;15.52;;
70929;SDS011;58588;48.102;19.682;2023-03-01T05:37:13;33.60;;;14.98;;
70929;SDS011;58588;48.102;19.682;2023-03-01T05:40:16;35.33;;;14.70;;
70929;SDS011;58588;48.102;19.682;2023-03-01T05:43:20;35.25;;;14.98;;
70929;SDS011;58588;48.102;19.682;2023-03-01T05:46:22;44.10;;;18.63;;
70929;SDS011;58588;48.102;19.682;2023-03-01T05:49:26;47.90;;;20.10;;
70929;SDS011;58588;48.102;19.682;2023-03-01T05:52:28;50.03;;;21.25;;
70929;SDS011;58588;48.102;19.682;2023-03-01T05:55:31;50.50;;;21.58;;
70929;SDS011;58588;48.102;19.682;2023-03-01T05:58:34;47.13;;;19.70;;
70929;SDS011;58588;48.102;19.682;2023-03-01T06:01:36;49.60;;;19.30;;
70929;SDS011;58588;48.102;19.682;2023-03-01T06:04:40;45.20;;;18.45;;
70929;SDS011;58588;48.102;19.682;2023-03-01T06:07:42;45.15;;;17.27;;
70929;SDS011;58588;48.102;19.682;2023-03-01T06:10:44;69.93;;;26.23;;
70929;SDS011;58588;48.102;19.682;2023-03-01T06:13:47;48.35;;;19.48;;
70929;SDS011;58588;48.102;19.682;2023-03-01T06:16:49;42.03;;;17.37;;
70929;SDS011;58588;48.102;19.682;2023-03-01T06:19:53;44.45;;;17.98;;
70929;SDS011;58588;48.102;19.682;2023-03-01T06:22:55;44.47;;;19.85;;
70929;SDS011;58588;48.102;19.682;2023-03-01T06:25:57;38.03;;;16.65;;
70929;SDS011;58588;48.102;19.682;2023-03-01T06:29:00;44.40;;;18.00;;
70929;SDS011;58588;48.102;19.682;2023-03-01T06:32:02;46.47;;;18.63;;
70929;SDS011;58588;48.102;19.682;2023-03-01T06:35:06;45.63;;;18.80;;
70929;SDS011;58588;48.102;19.682;2023-03-01T06:38:08;45.70;;;18.70;;
70929;SDS011;58588;48.102;19.682;2023-03-01T06:41:10;47.40;;;19.83;;
70929;SDS011;58588;48.102;19.682;2023-03-01T06:44:12;42.17;;;18.92;;
70929;SDS011;58588;48.102;19.682;2023-03-01T06:47:15;41.73;;;16.70;;
70929;SDS011;58588;48.102;19.682;2023-03-01T06:50:18;45.90;;;17.98;;
70929;SDS011;58588;48.102;19.682;2023-03-01T06:53:20;45.83;;;18.63;;
70929;SDS011;58588;48.102;19.682;2023-03-01T06:56:22;38.90;;;16.83;;
70929;SDS011;58588;48.102;19.682;2023-03-01T06:59:24;44.95;;;20.08;;
70929;SDS011;58588;48.102;19.682;2023-03-01T07:02:26;44.63;;;19.50;;
70929;SDS011;58588;48.102;19.682;2023-03-01T07:05:30;39.88;;;18.55;;
70929;SDS011;58588;48.102;19.682;2023-03-01T07:08:32;36.78;;;16.77;;
70929;SDS011;58588;48.102;19.682;2023-03-01T07:11:34;36.03;;;15.48;;
70929;SDS011;58588;48.102;19.682;2023-03-01T07:14:36;31.38;;;13.93;;
70929;SDS011;58588;48.102;19.682;2023-03-01T07:17:38;33.20;;;13.33;;
70929;SDS011;58588;48.102;19.682;2023-03-01T07:20:41;31.88;;;13.20;;
70929;SDS011;58588;48.102;19.682;2023-03-01T07:23:43;28.20;;;12.45;;
70929;SDS011;58588;48.102;19.682;2023-03-01T07:26:49;27.10;;;11.43;;
70929;SDS011;58588;48.102;19.682;2023-03-01T07:29:51;26.67;;;11.10;;
70929;SDS011;58588;48.102;19.682;2023-03-01T07:32:53;25.30;;;11.47;;
70929;SDS011;58588;48.102;19.682;2023-03-01T07:35:57;27.25;;;11.32;;
70929;SDS011;58588;48.102;19.682;2023-03-01T07:39:00;28.50;;;12.32;;
70929;SDS011;58588;48.102;19.682;2023-03-01T07:42:03;23.88;;;10.82;;
70929;SDS011;58588;48.102;19.682;2023-03-01T07:45:05;29.73;;;12.27;;
70929;SDS011;58588;48.102;19.682;2023-03-01T07:48:08;28.23;;;12.50;;
70929;SDS011;58588;48.102;19.682;2023-03-01T07:51:12;29.70;;;13.05;;
70929;SDS011;58588;48.102;19.682;2023-03-01T07:54:15;24.27;;;10.85;;
70929;SDS011;58588;48.102;19.682;2023-03-01T07:57:18;24.25;;;10.60;;
70929;SDS011;58588;48.102;19.682;2023-03-01T08:00:20;26.80;;;11.32;;
70929;SDS011;58588;48.102;19.682;2023-03-01T08:03:22;28.50;;;13.20;;
70929;SDS011;58588;48.102;19.682;2023-03-01T08:06:26;45.15;;;17.63;;
70929;SDS011;58588;48.102;19.682;2023-03-01T08:09:28;28.75;;;13.68;;
70929;SDS011;58588;48.102;19.682;2023-03-01T08:12:30;28.02;;;12.82;;
70929;SDS011;58588;48.102;19.682;2023-03-01T08:15:32;27.48;;;12.40;;
70929;SDS011;58588;48.102;19.682;2023-03-01T08:18:34;32.60;;;15.00;;
70929;SDS011;58588;48.102;19.682;2023-03-01T08:21:37;44.58;;;18.58;;
70929;SDS011;58588;48.102;19.682;2023-03-01T08:24:39;42.13;;;17.63;;
70929;SDS011;58588;48.102;19.682;2023-03-01T08:27:41;44.10;;;18.42;;
70929;SDS011;58588;48.102;19.682;2023-03-01T08:30:43;55.22;;;22.15;;
70929;SDS011;58588;48.102;19.682;2023-03-01T08:33:47;34.33;;;14.53;;
70929;SDS011;58588;48.102;19.682;2023-03-01T08:36:53;31.45;;;14.20;;
70929;SDS011;58588;48.102;19.682;2023-03-01T08:39:55;34.25;;;15.38;;
70929;SDS011;58588;48.102;19.682;2023-03-01T08:42:57;35.75;;;14.70;;
70929;SDS011;58588;48.102;19.682;2023-03-01T08:45:59;30.55;;;14.02;;
70929;SDS011;58588;48.102;19.682;2023-03-01T08:49:03;38.80;;;16.57;;
70929;SDS011;58588;48.102;19.682;2023-03-01T08:52:08;25.73;;;11.48;;
70929;SDS011;58588;48.102;19.682;2023-03-01T08:55:10;26.63;;;11.25;;
70929;SDS011;58588;48.102;19.682;2023-03-01T08:58:12;22.75;;;10.02;;
70929;SDS011;58588;48.102;19.682;2023-03-01T09:01:15;25.25;;;9.85;;
70929;SDS011;58588;48.102;19.682;2023-03-01T09:04:18;20.73;;;8.40;;
70929;SDS011;58588;48.102;19.682;2023-03-01T09:07:21;22.75;;;9.38;;
70929;SDS011;58588;48.102;19.682;2023-03-01T09:10:28;18.80;;;7.85;;
70929;SDS011;58588;48.102;19.682;2023-03-01T09:13:30;24.55;;;10.00;;
70929;SDS011;58588;48.102;19.682;2023-03-01T09:16:32;18.15;;;7.03;;
70929;SDS011;58588;48.102;19.682;2023-03-01T09:19:36;17.63;;;6.20;;
70929;SDS011;58588;48.102;19.682;2023-03-01T09:22:39;14.05;;;6.32;;
70929;SDS011;58588;48.102;19.682;2023-03-01T09:25:41;17.02;;;6.63;;
70929;SDS011;58588;48.102;19.682;2023-03-01T09:28:43;40.85;;;13.38;;
70929;SDS011;58588;48.102;19.682;2023-03-01T09:31:45;22.48;;;8.02;;
70929;SDS011;58588;48.102;19.682;2023-03-01T09:34:47;18.30;;;6.60;;
70929;SDS011;58588;48.102;19.682;2023-03-01T09:38:10;55.47;;;18.67;;
70929;SDS011;58588;48.102;19.682;2023-03-01T09:41:18;22.75;;;8.68;;
70929;SDS011;58588;48.102;19.682;2023-03-01T09:44:34;15.43;;;5.78;;
70929;SDS011;58588;48.102;19.682;2023-03-01T09:47:40;16.10;;;6.03;;
70929;SDS011;58588;48.102;19.682;2023-03-01T09:50:42;13.43;;;4.97;;
70929;SDS011;58588;48.102;19.682;2023-03-01T09:53:48;63.33;;;22.67;;
70929;SDS011;58588;48.102;19.682;2023-03-01T09:56:56;93.90;;;33.75;;
70929;SDS011;58588;48.102;19.682;2023-03-01T10:00:12;63.90;;;24.13;;
70929;SDS011;58588;48.102;19.682;2023-03-01T10:03:21;24.45;;;10.55;;
70929;SDS011;58588;48.102;19.682;2023-03-01T10:06:27;22.80;;;8.83;;
70929;SDS011;58588;48.102;19.682;2023-03-01T10:09:32;25.05;;;11.52;;
70929;SDS011;58588;48.102;19.682;2023-03-01T10:12:37;14.43;;;6.10;;
70929;SDS011;58588;48.102;19.682;2023-03-01T10:15:44;14.95;;;6.00;;
70929;SDS011;58588;48.102;19.682;2023-03-01T10:18:55;14.95;;;6.50;;
70929;SDS011;58588;48.102;19.682;2023-03-01T10:22:03;16.17;;;6.70;;
70929;SDS011;58588;48.102;19.682;2023-03-01T10:25:14;14.95;;;6.28;;
70929;SDS011;58588;48.102;19.682;2023-03-01T10:28:17;13.60;;;5.90;;
70929;SDS011;58588;48.102;19.682;2023-03-01T10:31:25;13.27;;;5.93;;
70929;SDS011;58588;48.102;19.682;2023-03-01T10:34:43;14.05;;;6.20;;
70929;SDS011;58588;48.102;19.682;2023-03-01T10:37:57;17.37;;;7.13;;
70929;SDS011;58588;48.102;19.682;2023-03-01T10:41:06;16.13;;;7.15;;
70929;SDS011;58588;48.102;19.682;2023-03-01T10:44:08;34.95;;;17.65;;
70929;SDS011;58588;48.102;19.682;2023-03-01T10:47:57;16.65;;;7.18;;
70929;SDS011;58588;48.102;19.682;2023-03-01T10:51:05;15.05;;;6.90;;
70929;SDS011;58588;48.102;19.682;2023-03-01T10:54:15;15.30;;;7.47;;
70929;SDS011;58588;48.102;19.682;2023-03-01T10:57:30;12.40;;;5.95;;
70929;SDS011;58588;48.102;19.682;2023-03-01T11:00:45;17.25;;;7.15;;
70929;SDS011;58588;48.102;19.682;2023-03-01T11:03:55;15.23;;;6.57;;
70929;SDS011;58588;48.102;19.682;2023-03-01T11:07:11;18.23;;;7.25;;
70929;SDS011;58588;48.102;19.682;2023-03-01T11:10:15;15.57;;;7.07;;
70929;SDS011;58588;48.102;19.682;2023-03-01T11:13:20;12.68;;;4.90;;
70929;SDS011;58588;48.102;19.682;2023-03-01T11:16:23;14.27;;;6.47;;
70929;SDS011;58588;48.102;19.682;2023-03-01T11:19:31;10.77;;;4.97;;
70929;SDS011;58588;48.102;19.682;2023-03-01T11:22:33;15.90;;;6.60;;
70929;SDS011;58588;48.102;19.682;2023-03-01T11:25:37;16.20;;;5.40;;
70929;SDS011;58588;48.102;19.682;2023-03-01T11:28:44;10.20;;;3.85;;
70929;SDS011;58588;48.102;19.682;2023-03-01T11:31:53;9.73;;;3.50;;
70929;SDS011;58588;48.102;19.682;2023-03-01T11:35:00;9.50;;;3.78;;
70929;SDS011;58588;48.102;19.682;2023-03-01T11:38:09;8.85;;;3.60;;
70929;SDS011;58588;48.102;19.682;2023-03-01T11:41:20;11.13;;;5.40;;
70929;SDS011;58588;48.102;19.682;2023-03-01T11:44:28;9.68;;;3.50;;
70929;SDS011;58588;48.102;19.682;2023-03-01T11:47:33;10.23;;;3.10;;
70929;SDS011;58588;48.102;19.682;2023-03-01T11:50:50;11.30;;;4.60;;
70929;SDS011;58588;48.102;19.682;2023-03-01T11:54:01;9.63;;;3.65;;
70929;SDS011;58588;48.102;19.682;2023-03-01T11:57:26;10.97;;;3.50;;
70929;SDS011;58588;48.102;19.682;2023-03-01T12:00:47;8.50;;;3.00;;
70929;SDS011;58588;48.102;19.682;2023-03-01T12:07:52;10.35;;;4.43;;
70929;SDS011;58588;48.102;19.682;2023-03-01T12:11:03;8.18;;;3.30;;
70929;SDS011;58588;48.102;19.682;2023-03-01T12:14:21;10.53;;;4.20;;
70929;SDS011;58588;48.102;19.682;2023-03-01T12:17:45;9.32;;;3.88;;
70929;SDS011;58588;48.102;19.682;2023-03-01T12:21:02;11.13;;;4.97;;
70929;SDS011;58588;48.102;19.682;2023-03-01T12:31:37;7.77;;;2.30;;
70929;SDS011;58588;48.102;19.682;2023-03-01T12:34:59;8.13;;;2.90;;
70929;SDS011;58588;48.102;19.682;2023-03-01T12:38:25;8.27;;;2.60;;
70929;SDS011;58588;48.102;19.682;2023-03-01T12:41:42;9.43;;;3.83;;
70929;SDS011;58588;48.102;19.682;2023-03-01T12:44:55;8.35;;;2.80;;
70929;SDS011;58588;48.102;19.682;2023-03-01T12:48:17;8.77;;;3.20;;
70929;SDS011;58588;48.102;19.682;2023-03-01T12:51:32;8.10;;;2.72;;
70929;SDS011;58588;48.102;19.682;2023-03-01T12:54:37;25.70;;;10.52;;
70929;SDS011;58588;48.102;19.682;2023-03-01T12:57:40;10.15;;;3.50;;
70929;SDS011;58588;48.102;19.682;2023-03-01T13:00:51;11.23;;;3.70;;
70929;SDS011;58588;48.102;19.682;2023-03-01T13:04:12;7.70;;;2.80;;
70929;SDS011;58588;48.102;19.682;2023-03-01T13:07:23;8.25;;;2.65;;
70929;SDS011;58588;48.102;19.682;2023-03-01T13:10:32;9.10;;;2.88;;
70929;SDS011;58588;48.102;19.682;2023-03-01T13:13:37;10.25;;;3.10;;
70929;SDS011;58588;48.102;19.682;2023-03-01T13:16:39;9.05;;;2.80;;
70929;SDS011;58588;48.102;19.682;2023-03-01T13:19:47;6.87;;;2.30;;
70929;SDS011;58588;48.102;19.682;2023-03-01T13:23:04;7.15;;;2.70;;
70929;SDS011;58588;48.102;19.682;2023-03-01T13:26:10;7.55;;;2.80;;
70929;SDS011;58588;48.102;19.682;2023-03-01T13:29:25;8.65;;;2.95;;
70929;SDS011;58588;48.102;19.682;2023-03-01T13:32:28;7.90;;;2.50;;
70929;SDS011;58588;48.102;19.682;2023-03-01T13:35:42;10.83;;;2.20;;
70929;SDS011;58588;48.102;19.682;2023-03-01T13:38:47;10.48;;;3.20;;
70929;SDS011;58588;48.102;19.682;2023-03-01T13:41:57;8.35;;;2.72;;
70929;SDS011;58588;48.102;19.682;2023-03-01T13:45:01;8.45;;;2.38;;
70929;SDS011;58588;48.102;19.682;2023-03-01T13:48:04;8.27;;;2.08;;
70929;SDS011;58588;48.102;19.682;2023-03-01T13:51:12;7.80;;;1.90;;
70929;SDS011;58588;48.102;19.682;2023-03-01T13:54:16;9.15;;;1.95;;
70929;SDS011;58588;48.102;19.682;2023-03-01T13:57:26;8.73;;;2.08;;
70929;SDS011;58588;48.102;19.682;2023-03-01T14:00:34;7.57;;;1.95;;
70929;SDS011;58588;48.102;19.682;2023-03-01T14:03:40;7.80;;;1.42;;
70929;SDS011;58588;48.102;19.682;2023-03-01T14:06:43;8.47;;;1.87;;
70929;SDS011;58588;48.102;19.682;2023-03-01T14:09:47;8.52;;;1.90;;
70929;SDS011;58588;48.102;19.682;2023-03-01T14:12:53;7.15;;;2.00;;
70929;SDS011;58588;48.102;19.682;2023-03-01T14:16:09;10.32;;;2.05;;
70929;SDS011;58588;48.102;19.682;2023-03-01T14:19:23;7.13;;;1.85;;
70929;SDS011;58588;48.102;19.682;2023-03-01T14:22:27;12.03;;;2.03;;
70929;SDS011;58588;48.102;19.682;2023-03-01T14:25:33;8.95;;;1.73;;
70929;SDS011;58588;48.102;19.682;2023-03-01T14:28:37;9.18;;;1.90;;
70929;SDS011;58588;48.102;19.682;2023-03-01T14:31:40;9.82;;;2.45;;
70929;SDS011;58588;48.102;19.682;2023-03-01T14:34:43;8.05;;;1.63;;
70929;SDS011;58588;48.102;19.682;2023-03-01T14:37:46;8.23;;;1.43;;
70929;SDS011;58588;48.102;19.682;2023-03-01T14:40:52;7.28;;;1.92;;
70929;SDS011;58588;48.102;19.682;2023-03-01T14:44:00;8.68;;;1.85;;
70929;SDS011;58588;48.102;19.682;2023-03-01T14:47:03;7.72;;;1.80;;
70929;SDS011;58588;48.102;19.682;2023-03-01T14:50:08;7.57;;;1.65;;
70929;SDS011;58588;48.102;19.682;2023-03-01T14:53:16;11.23;;;2.00;;
70929;SDS011;58588;48.102;19.682;2023-03-01T14:56:22;7.75;;;1.67;;
70929;SDS011;58588;48.102;19.682;2023-03-01T14:59:24;9.05;;;1.73;;
70929;SDS011;58588;48.102;19.682;2023-03-01T15:02:26;6.95;;;1.85;;
70929;SDS011;58588;48.102;19.682;2023-03-01T15:05:32;8.18;;;1.65;;
70929;SDS011;58588;48.102;19.682;2023-03-01T15:08:35;12.57;;;2.17;;
70929;SDS011;58588;48.102;19.682;2023-03-01T15:11:40;7.22;;;1.80;;
70929;SDS011;58588;48.102;19.682;2023-03-01T15:14:43;7.40;;;1.90;;
70929;SDS011;58588;48.102;19.682;2023-03-01T15:17:50;7.30;;;1.77;;
70929;SDS011;58588;48.102;19.682;2023-03-01T15:21:04;9.82;;;2.22;;
70929;SDS011;58588;48.102;19.682;2023-03-01T15:24:15;8.63;;;1.93;;
70929;SDS011;58588;48.102;19.682;2023-03-01T15:27:23;7.50;;;2.13;;
70929;SDS011;58588;48.102;19.682;2023-03-01T15:30:27;80.57;;;25.50;;
70929;SDS011;58588;48.102;19.682;2023-03-01T15:33:35;28.42;;;10.60;;
70929;SDS011;58588;48.102;19.682;2023-03-01T15:36:42;10.27;;;2.95;;
70929;SDS011;58588;48.102;19.682;2023-03-01T15:39:52;9.97;;;4.17;;
70929;SDS011;58588;48.102;19.682;2023-03-01T15:42:57;63.47;;;41.50;;
70929;SDS011;58588;48.102;19.682;2023-03-01T15:46:00;17.58;;;7.68;;
70929;SDS011;58588;48.102;19.682;2023-03-01T15:49:02;8.38;;;2.65;;
70929;SDS011;58588;48.102;19.682;2023-03-01T15:52:09;7.47;;;2.10;;
70929;SDS011;58588;48.102;19.682;2023-03-01T15:55:29;7.03;;;1.80;;
70929;SDS011;58588;48.102;19.682;2023-03-01T15:58:35;7.28;;;1.63;;
70929;SDS011;58588;48.102;19.682;2023-03-01T16:01:37;9.75;;;1.73;;
70929;SDS011;58588;48.102;19.682;2023-03-01T16:04:39;10.52;;;1.98;;
70929;SDS011;58588;48.102;19.682;2023-03-01T16:07:41;7.78;;;1.95;;
70929;SDS011;58588;48.102;19.682;2023-03-01T16:10:43;9.03;;;2.43;;
70929;SDS011;58588;48.102;19.682;2023-03-01T16:13:47;8.00;;;1.85;;
70929;SDS011;58588;48.102;19.682;2023-03-01T16:16:52;7.90;;;1.77;;
70929;SDS011;58588;48.102;19.682;2023-03-01T16:19:54;123.88;;;37.97;;
70929;SDS011;58588;48.102;19.682;2023-03-01T16:23:01;45.47;;;17.10;;
70929;SDS011;58588;48.102;19.682;2023-03-01T16:26:11;50.80;;;24.17;;
70929;SDS011;58588;48.102;19.682;2023-03-01T16:29:15;33.13;;;13.88;;
70929;SDS011;58588;48.102;19.682;2023-03-01T16:32:17;24.15;;;9.57;;
70929;SDS011;58588;48.102;19.682;2023-03-01T16:35:20;21.60;;;9.38;;
70929;SDS011;58588;48.102;19.682;2023-03-01T16:38:23;20.20;;;7.75;;
70929;SDS011;58588;48.102;19.682;2023-03-01T16:41:25;26.00;;;10.40;;
70929;SDS011;58588;48.102;19.682;2023-03-01T16:44:30;30.88;;;12.10;;
70929;SDS011;58588;48.102;19.682;2023-03-01T16:47:32;29.77;;;11.68;;
70929;SDS011;58588;48.102;19.682;2023-03-01T16:50:34;29.30;;;13.07;;
70929;SDS011;58588;48.102;19.682;2023-03-01T16:53:37;20.77;;;8.25;;
70929;SDS011;58588;48.102;19.682;2023-03-01T16:56:39;38.83;;;17.97;;
70929;SDS011;58588;48.102;19.682;2023-03-01T16:59:43;26.92;;;10.70;;
70929;SDS011;58588;48.102;19.682;2023-03-01T17:02:45;27.45;;;11.77;;
70929;SDS011;58588;48.102;19.682;2023-03-01T17:05:47;14.70;;;6.05;;
70929;SDS011;58588;48.102;19.682;2023-03-01T17:08:49;29.63;;;13.57;;
70929;SDS011;58588;48.102;19.682;2023-03-01T17:11:51;26.63;;;12.47;;
70929;SDS011;58588;48.102;19.682;2023-03-01T17:14:55;29.42;;;13.98;;
70929;SDS011;58588;48.102;19.682;2023-03-01T17:17:57;35.17;;;16.70;;
70929;SDS011;58588;48.102;19.682;2023-03-01T17:21:00;40.92;;;16.55;;
70929;SDS011;58588;48.102;19.682;2023-03-01T17:24:02;22.33;;;9.10;;
70929;SDS011;58588;48.102;19.682;2023-03-01T17:27:05;34.53;;;13.53;;
70929;SDS011;58588;48.102;19.682;2023-03-01T17:30:11;28.42;;;10.70;;
70929;SDS011;58588;48.102;19.682;2023-03-01T17:33:15;29.23;;;12.02;;
70929;SDS011;58588;48.102;19.682;2023-03-01T17:36:17;22.40;;;9.25;;
70929;SDS011;58588;48.102;19.682;2023-03-01T17:39:20;26.20;;;10.23;;
70929;SDS011;58588;48.102;19.682;2023-03-01T17:42:27;16.67;;;5.83;;
70929;SDS011;58588;48.102;19.682;2023-03-01T17:45:31;24.17;;;6.88;;
70929;SDS011;58588;48.102;19.682;2023-03-01T17:48:33;26.67;;;8.55;;
70929;SDS011;58588;48.102;19.682;2023-03-01T17:51:35;22.63;;;8.10;;
70929;SDS011;58588;48.102;19.682;2023-03-01T17:54:37;92.30;;;36.80;;
70929;SDS011;58588;48.102;19.682;2023-03-01T17:57:39;72.63;;;29.53;;
70929;SDS011;58588;48.102;19.682;2023-03-01T18:00:43;64.97;;;26.83;;
70929;SDS011;58588;48.102;19.682;2023-03-01T18:03:45;52.88;;;21.85;;
70929;SDS011;58588;48.102;19.682;2023-03-01T18:06:47;65.72;;;28.02;;
70929;SDS011;58588;48.102;19.682;2023-03-01T18:09:49;70.20;;;30.85;;